Terminal Aerodrome Forecast
Issued by NWS

Home | Current Version | Previous Version | Graphics & Text | Print | Product List | Glossary On
Versions: 1 2 3 4 5 6 7 8 9 10 11 12 13 14 15 16 17 18
000
FTUS43 KUNR 221720
TAFGCC
TAF
KGCC 221720Z 2218/2318 25013KT P6SM SCT150
     FM222200 34010KT P6SM BKN150
     FM230000 07007KT P6SM OVC080
     FM230900 03007KT P6SM VCSH OVC050
     FM231200 35011KT 5SM -SHRA OVC010=

USA.gov is the U.S. government's official web portal to all federal, state and local government web resources and services.